Time;durP1;ratioP1;P1;durP2;ratioP2;P2;SDS_P1;SDS_P2;PMS_P1;PMS_P2;Temp;Humidity;BMP_temperature;BMP_pressure;BME280_temperature;BME280_humidity;BME280_pressure;Samples;Min_cycle;Max_cycle;Signal;HPM_P1;HPM_P2
2021/09/17 00:02:23;;;;;;;;;28.50;27.50;;;;;;;;4991069;28;45490;-73
2021/09/17 00:04:50;;;;;;;;;29.00;28.50;;;;;;;;4991296;28;45464;-75
2021/09/17 00:07:15;;;;;;;;;33.00;30.25;;;;;;;;4991612;28;45267;-72
2021/09/17 00:09:41;;;;;;;;;30.00;26.50;;;;;;;;4992389;28;45452;-73
2021/09/17 00:12:06;;;;;;;;;30.75;27.50;;;;;;;;4974604;28;45322;-73
2021/09/17 00:14:32;;;;;;;;;33.25;27.50;;;;;;;;4991392;28;45458;-73
2021/09/17 00:16:57;;;;;;;;;28.50;23.75;;;;;;;;4991561;28;45522;-73
2021/09/17 00:19:22;;;;;;;;;32.75;29.00;;;;;;;;4991603;28;45276;-73
2021/09/17 00:21:47;;;;;;;;;29.75;29.00;;;;;;;;4991325;28;46094;-72
2021/09/17 00:24:13;;;;;;;;;31.50;27.75;;;;;;;;4975426;28;47366;-72
2021/09/17 00:26:38;;;;;;;;;28.50;25.75;;;;;;;;4990893;28;45264;-72
2021/09/17 00:29:03;;;;;;;;;33.00;32.50;;;;;;;;4991117;28;45332;-72
2021/09/17 00:31:28;;;;;;;;;28.50;27.25;;;;;;;;4989581;28;45430;-72
2021/09/17 00:33:54;;;;;;;;;27.50;23.75;;;;;;;;4991089;28;45425;-72
2021/09/17 00:36:19;;;;;;;;;27.50;22.75;;;;;;;;4991869;28;45517;-72
2021/09/17 00:38:44;;;;;;;;;30.50;25.00;;;;;;;;4990930;28;45520;-72
2021/09/17 00:41:11;;;;;;;;;31.75;26.00;;;;;;;;4990205;28;47177;-74
2021/09/17 00:43:37;;;;;;;;;25.25;25.25;;;;;;;;4991096;28;45908;-72
2021/09/17 00:46:02;;;;;;;;;26.50;26.50;;;;;;;;4991245;28;45374;-72
2021/09/17 00:48:27;;;;;;;;;28.25;28.25;;;;;;;;4992862;28;45362;-73
2021/09/17 00:50:52;;;;;;;;;27.75;26.25;;;;;;;;4990626;28;45394;-71
2021/09/17 00:53:18;;;;;;;;;28.25;28.25;;;;;;;;4990823;28;45560;-73
2021/09/17 00:55:43;;;;;;;;;26.00;23.00;;;;;;;;4990742;28;45402;-73
2021/09/17 00:58:08;;;;;;;;;36.50;34.00;;;;;;;;4990896;28;45351;-74
2021/09/17 01:00:34;;;;;;;;;36.75;28.50;;;;;;;;4992789;28;46150;-73
2021/09/17 01:02:59;;;;;;;;;34.25;27.50;;;;;;;;4990762;28;45524;-73
2021/09/17 01:05:24;;;;;;;;;35.25;29.00;;;;;;;;4990732;28;45422;-73
2021/09/17 01:07:49;;;;;;;;;35.75;28.25;;;;;;;;4990626;28;45383;-73
2021/09/17 01:10:15;;;;;;;;;27.75;24.50;;;;;;;;4988628;28;45252;-73
2021/09/17 01:12:41;;;;;;;;;28.50;24.25;;;;;;;;4991723;28;45414;-73
2021/09/17 01:15:07;;;;;;;;;24.25;22.75;;;;;;;;4990329;28;45456;-73
2021/09/17 01:17:38;;;;;;;;;26.00;26.00;;;;;;;;4990532;27;45483;-73
2021/09/17 01:20:05;;;;;;;;;26.00;23.50;;;;;;;;4972890;28;46272;-72
2021/09/17 01:22:30;;;;;;;;;27.00;25.50;;;;;;;;4990111;28;45441;-73
2021/09/17 01:24:55;;;;;;;;;22.75;22.50;;;;;;;;4990069;28;45268;-72
2021/09/17 01:27:21;;;;;;;;;26.00;22.00;;;;;;;;4992048;28;45390;-73
2021/09/17 01:29:46;;;;;;;;;28.25;26.25;;;;;;;;4989954;28;45465;-73
2021/09/17 01:32:12;;;;;;;;;29.75;26.00;;;;;;;;4989896;28;45388;-73
2021/09/17 01:34:37;;;;;;;;;30.00;29.25;;;;;;;;4990480;28;45313;-73
2021/09/17 01:37:02;;;;;;;;;26.00;25.75;;;;;;;;4990414;28;45208;-73
2021/09/17 01:39:27;;;;;;;;;28.25;25.25;;;;;;;;4991870;28;45208;-72
2021/09/17 01:41:53;;;;;;;;;22.75;22.75;;;;;;;;4990035;28;45567;-73
2021/09/17 01:44:18;;;;;;;;;22.75;22.75;;;;;;;;4990228;28;45227;-73
2021/09/17 01:46:44;;;;;;;;;18.75;18.75;;;;;;;;4990373;28;45358;-73
2021/09/17 01:49:09;;;;;;;;;22.25;20.75;;;;;;;;4988349;28;46009;-73
2021/09/17 01:51:35;;;;;;;;;19.50;19.50;;;;;;;;4991507;28;45447;-73
2021/09/17 01:54:04;;;;;;;;;24.50;22.00;;;;;;;;4988925;28;45414;-73
2021/09/17 01:56:30;;;;;;;;;21.25;20.75;;;;;;;;4972413;28;45322;-73
2021/09/17 01:58:55;;;;;;;;;22.50;19.25;;;;;;;;4989808;28;45407;-73
2021/09/17 02:01:20;;;;;;;;;21.50;18.75;;;;;;;;4989951;28;45445;-73
2021/09/17 02:03:46;;;;;;;;;18.25;18.25;;;;;;;;4990457;28;45287;-73
2021/09/17 02:06:17;;;;;;;;;28.25;20.75;;;;;;;;4991654;28;45479;-73
2021/09/17 02:08:43;;;;;;;;;21.25;19.25;;;;;;;;4989487;28;45635;-74
2021/09/17 02:11:08;;;;;;;;;21.25;19.75;;;;;;;;4989532;28;45556;-72
2021/09/17 02:13:33;;;;;;;;;21.75;18.50;;;;;;;;4989867;28;45532;-72
2021/09/17 02:15:58;;;;;;;;;22.50;19.75;;;;;;;;4993075;28;45427;-72
2021/09/17 02:18:24;;;;;;;;;20.50;16.00;;;;;;;;4994847;28;45508;-72
2021/09/17 02:20:49;;;;;;;;;16.75;14.00;;;;;;;;4992615;28;45434;-73
2021/09/17 02:23:14;;;;;;;;;18.50;17.25;;;;;;;;4992494;28;45229;-72
2021/09/17 02:25:40;;;;;;;;;17.75;16.25;;;;;;;;4992984;28;45287;-72
2021/09/17 02:28:05;;;;;;;;;17.25;15.75;;;;;;;;4991244;28;46200;-72
2021/09/17 02:30:30;;;;;;;;;15.50;15.50;;;;;;;;4977264;28;45307;-72
2021/09/17 02:32:56;;;;;;;;;23.00;17.00;;;;;;;;4991284;28;45408;-74
2021/09/17 02:35:21;;;;;;;;;17.00;15.00;;;;;;;;4992690;28;45412;-72
2021/09/17 02:37:46;;;;;;;;;18.75;17.50;;;;;;;;4992125;28;46038;-72
2021/09/17 02:40:13;;;;;;;;;18.75;18.50;;;;;;;;4992307;28;45351;-72
2021/09/17 02:42:38;;;;;;;;;20.00;17.00;;;;;;;;4994022;28;45303;-72
2021/09/17 02:45:05;;;;;;;;;25.75;22.50;;;;;;;;4993026;28;46093;-73
2021/09/17 02:47:30;;;;;;;;;19.25;18.25;;;;;;;;4991597;28;45566;-73
2021/09/17 02:49:55;;;;;;;;;17.25;17.25;;;;;;;;4991954;28;45378;-73
2021/09/17 02:52:21;;;;;;;;;16.50;16.25;;;;;;;;4991961;28;45466;-73
2021/09/17 02:54:47;;;;;;;;;25.75;23.50;;;;;;;;4992512;28;45474;-74
2021/09/17 02:57:12;;;;;;;;;20.25;17.50;;;;;;;;4993779;28;46045;-74
2021/09/17 02:59:37;;;;;;;;;17.25;15.00;;;;;;;;4991916;28;45395;-72
2021/09/17 03:02:03;;;;;;;;;25.75;24.00;;;;;;;;4992146;28;45553;-73
2021/09/17 03:04:30;;;;;;;;;18.75;17.50;;;;;;;;4992380;28;45434;-72
2021/09/17 03:06:57;;;;;;;;;18.00;16.75;;;;;;;;4991327;28;46215;-72
2021/09/17 03:09:22;;;;;;;;;17.00;15.00;;;;;;;;4993274;28;45301;-73
2021/09/17 03:11:47;;;;;;;;;23.75;19.25;;;;;;;;4990498;28;45343;-73
2021/09/17 03:14:12;;;;;;;;;21.75;19.00;;;;;;;;4991829;28;45309;-72
2021/09/17 03:16:38;;;;;;;;;26.25;21.00;;;;;;;;4991935;28;46077;-72
2021/09/17 03:19:03;;;;;;;;;19.75;18.75;;;;;;;;4992085;28;45497;-73
2021/09/17 03:21:28;;;;;;;;;21.50;19.00;;;;;;;;4993688;28;45318;-72
2021/09/17 03:23:53;;;;;;;;;18.75;16.25;;;;;;;;4973926;28;45663;-71
2021/09/17 03:26:19;;;;;;;;;21.00;20.00;;;;;;;;4989933;28;46196;-73
2021/09/17 03:28:44;;;;;;;;;20.25;18.50;;;;;;;;4991548;28;46138;-73
2021/09/17 03:31:09;;;;;;;;;21.50;18.50;;;;;;;;4991709;28;45352;-74
2021/09/17 03:33:34;;;;;;;;;15.25;14.75;;;;;;;;4993282;28;45365;-72
2021/09/17 03:36:00;;;;;;;;;22.50;20.75;;;;;;;;4992063;28;48469;-73
2021/09/17 03:38:25;;;;;;;;;21.50;19.75;;;;;;;;4991519;28;45429;-73
2021/09/17 03:40:50;;;;;;;;;19.00;17.00;;;;;;;;4991786;28;45367;-73
2021/09/17 03:43:16;;;;;;;;;27.75;25.25;;;;;;;;4991593;28;45544;-73
2021/09/17 03:45:41;;;;;;;;;24.50;22.50;;;;;;;;4992234;28;45606;-73
2021/09/17 03:48:08;;;;;;;;;19.50;18.50;;;;;;;;4990673;28;45412;-73
2021/09/17 03:50:34;;;;;;;;;23.75;21.00;;;;;;;;4990109;28;45339;-73
2021/09/17 03:52:59;;;;;;;;;22.25;19.75;;;;;;;;4991153;28;45467;-73
2021/09/17 03:55:24;;;;;;;;;22.25;18.50;;;;;;;;4991380;28;45477;-73
2021/09/17 03:57:50;;;;;;;;;18.25;18.25;;;;;;;;4990874;28;45267;-73
2021/09/17 04:00:15;;;;;;;;;24.25;23.25;;;;;;;;4993165;28;45454;-73
2021/09/17 04:02:40;;;;;;;;;30.50;26.00;;;;;;;;4990681;28;45425;-72
2021/09/17 04:05:06;;;;;;;;;28.00;25.50;;;;;;;;4991073;28;45322;-73
2021/09/17 04:07:36;;;;;;;;;23.00;21.75;;;;;;;;4990944;28;45214;-73
2021/09/17 04:10:01;;;;;;;;;27.00;23.25;;;;;;;;4975752;28;45332;-73
2021/09/17 04:12:26;;;;;;;;;35.75;31.25;;;;;;;;4992868;28;45372;-72
2021/09/17 04:14:51;;;;;;;;;27.00;25.00;;;;;;;;4990481;28;47489;-72
2021/09/17 04:17:16;;;;;;;;;30.75;26.50;;;;;;;;4990338;28;45442;-72
2021/09/17 04:19:42;;;;;;;;;23.25;20.75;;;;;;;;4990917;28;45517;-72
2021/09/17 04:22:08;;;;;;;;;24.50;20.00;;;;;;;;4990856;28;45442;-73
2021/09/17 04:24:33;;;;;;;;;26.75;23.75;;;;;;;;4992861;28;45393;-72
2021/09/17 04:26:58;;;;;;;;;27.75;26.00;;;;;;;;4991148;28;45446;-73
2021/09/17 04:29:23;;;;;;;;;26.75;23.25;;;;;;;;4988883;28;45387;-73
2021/09/17 04:31:49;;;;;;;;;23.75;19.00;;;;;;;;4990072;28;45425;-72
2021/09/17 04:34:14;;;;;;;;;26.25;22.75;;;;;;;;4990644;28;45379;-74
2021/09/17 04:36:39;;;;;;;;;27.00;24.00;;;;;;;;4991493;28;45446;-74
2021/09/17 04:39:05;;;;;;;;;26.00;24.00;;;;;;;;4991559;28;45424;-73
2021/09/17 04:41:30;;;;;;;;;23.75;22.25;;;;;;;;4990459;28;45449;-74
2021/09/17 04:43:55;;;;;;;;;25.50;23.50;;;;;;;;4990291;28;46162;-73
2021/09/17 04:46:20;;;;;;;;;30.75;28.50;;;;;;;;4990227;28;45458;-73
2021/09/17 04:48:46;;;;;;;;;26.00;25.00;;;;;;;;4990382;28;45442;-73
2021/09/17 04:51:11;;;;;;;;;34.25;31.25;;;;;;;;4991842;28;45360;-73
2021/09/17 04:53:36;;;;;;;;;39.50;34.25;;;;;;;;4989652;28;46046;-73
2021/09/17 04:56:01;;;;;;;;;25.50;23.50;;;;;;;;4989709;28;45454;-73
2021/09/17 04:58:27;;;;;;;;;30.00;28.75;;;;;;;;4989950;28;45876;-73
2021/09/17 05:00:52;;;;;;;;;28.25;26.00;;;;;;;;4990047;28;45291;-73
2021/09/17 05:03:17;;;;;;;;;25.50;23.75;;;;;;;;4991957;28;46336;-74
2021/09/17 05:05:42;;;;;;;;;27.00;25.75;;;;;;;;4988016;28;45590;-74
2021/09/17 05:08:08;;;;;;;;;24.00;23.50;;;;;;;;4988234;28;45474;-74
2021/09/17 05:10:33;;;;;;;;;21.25;21.25;;;;;;;;4990020;28;45513;-73
2021/09/17 05:12:58;;;;;;;;;23.00;22.75;;;;;;;;4989419;28;46740;-73
2021/09/17 05:15:23;;;;;;;;;45.75;35.25;;;;;;;;4990892;28;45442;-75
2021/09/17 05:17:49;;;;;;;;;31.75;29.75;;;;;;;;4989627;28;45589;-73
2021/09/17 05:20:14;;;;;;;;;34.75;31.50;;;;;;;;4989162;28;45445;-73
2021/09/17 05:22:39;;;;;;;;;24.50;22.50;;;;;;;;4989083;28;47130;-72
2021/09/17 05:25:05;;;;;;;;;30.25;26.75;;;;;;;;4989514;28;45589;-74
2021/09/17 05:27:30;;;;;;;;;29.75;26.75;;;;;;;;4991547;28;45350;-74
2021/09/17 05:29:57;;;;;;;;;30.00;29.00;;;;;;;;4989438;28;45367;-73
2021/09/17 05:32:22;;;;;;;;;32.25;29.25;;;;;;;;4988293;28;47393;-73
2021/09/17 05:34:48;;;;;;;;;31.00;29.00;;;;;;;;4989289;28;45533;-74
2021/09/17 05:37:14;;;;;;;;;25.50;25.50;;;;;;;;4989472;28;45405;-74
2021/09/17 05:39:39;;;;;;;;;25.25;22.75;;;;;;;;4972157;28;45390;-74
2021/09/17 05:42:04;;;;;;;;;34.25;29.50;;;;;;;;4989582;28;47973;-72
2021/09/17 05:44:30;;;;;;;;;34.25;29.25;;;;;;;;4986627;28;45318;-74
2021/09/17 05:46:55;;;;;;;;;30.75;28.50;;;;;;;;4987841;28;45283;-74
2021/09/17 05:49:21;;;;;;;;;30.75;29.00;;;;;;;;4989855;28;45409;-73
2021/09/17 05:51:46;;;;;;;;;26.75;22.00;;;;;;;;4991807;28;45930;-75
2021/09/17 05:54:11;;;;;;;;;30.75;30.75;;;;;;;;4993439;28;45283;-74
2021/09/17 05:56:36;;;;;;;;;30.00;27.75;;;;;;;;4992221;28;45431;-74
2021/09/17 05:59:02;;;;;;;;;26.75;25.00;;;;;;;;4991193;28;45405;-74
2021/09/17 06:01:27;;;;;;;;;33.00;29.50;;;;;;;;4991626;28;46046;-75
2021/09/17 06:03:53;;;;;;;;;30.50;29.00;;;;;;;;4991873;28;45474;-74
2021/09/17 06:06:18;;;;;;;;;34.75;30.75;;;;;;;;4993723;28;45162;-74
2021/09/17 06:08:44;;;;;;;;;38.25;32.25;;;;;;;;4991691;28;45395;-75
2021/09/17 06:11:09;;;;;;;;;32.25;30.00;;;;;;;;4991154;28;46127;-73
2021/09/17 06:13:34;;;;;;;;;30.25;27.50;;;;;;;;4974301;28;45240;-73
2021/09/17 06:16:00;;;;;;;;;33.25;30.75;;;;;;;;4991308;28;45350;-74
2021/09/17 06:18:25;;;;;;;;;27.25;27.25;;;;;;;;4992856;28;45483;-74
2021/09/17 06:20:50;;;;;;;;;31.00;28.25;;;;;;;;4991116;28;47288;-73
2021/09/17 06:23:15;;;;;;;;;35.25;29.50;;;;;;;;4990017;28;45553;-72
2021/09/17 06:25:40;;;;;;;;;31.50;25.25;;;;;;;;4990359;28;45446;-74
2021/09/17 06:28:06;;;;;;;;;33.00;28.50;;;;;;;;4991201;28;45417;-75
2021/09/17 06:30:32;;;;;;;;;24.50;20.75;;;;;;;;4993382;28;46426;-74
2021/09/17 06:32:57;;;;;;;;;31.75;29.00;;;;;;;;4989775;28;45356;-74
2021/09/17 06:35:23;;;;;;;;;32.50;30.50;;;;;;;;4991585;28;45519;-73
2021/09/17 06:37:50;;;;;;;;;42.75;35.75;;;;;;;;4991110;28;45403;-74
2021/09/17 06:40:15;;;;;;;;;31.50;30.00;;;;;;;;4991103;28;46105;-74
2021/09/17 06:42:41;;;;;;;;;37.00;31.00;;;;;;;;4991318;28;45336;-74
2021/09/17 06:45:07;;;;;;;;;35.75;33.75;;;;;;;;4992186;28;45573;-73
2021/09/17 06:47:34;;;;;;;;;34.50;32.00;;;;;;;;4990344;28;45483;-74
2021/09/17 06:50:00;;;;;;;;;28.75;25.25;;;;;;;;4990106;28;47507;-74
2021/09/17 06:52:26;;;;;;;;;33.25;28.50;;;;;;;;4990396;28;45406;-74
2021/09/17 06:54:51;;;;;;;;;36.50;30.00;;;;;;;;4991082;28;45543;-74
2021/09/17 06:57:16;;;;;;;;;36.25;31.00;;;;;;;;4992670;28;45452;-73
2021/09/17 06:59:43;;;;;;;;;33.25;29.00;;;;;;;;4990606;28;46231;-75
2021/09/17 07:02:08;;;;;;;;;29.00;28.50;;;;;;;;4991347;28;45378;-75
2021/09/17 07:04:33;;;;;;;;;32.00;30.75;;;;;;;;4989380;28;45340;-74
2021/09/17 07:06:59;;;;;;;;;39.50;34.75;;;;;;;;4990995;28;45415;-74
2021/09/17 07:09:24;;;;;;;;;31.50;28.50;;;;;;;;4992458;28;45593;-73
2021/09/17 07:11:49;;;;;;;;;36.25;34.50;;;;;;;;4989556;28;45457;-74
2021/09/17 07:14:14;;;;;;;;;32.00;30.75;;;;;;;;4990867;28;45481;-73
2021/09/17 07:16:40;;;;;;;;;35.50;33.25;;;;;;;;4991027;28;45435;-72
2021/09/17 07:19:05;;;;;;;;;36.00;32.00;;;;;;;;4990293;28;47031;-74
2021/09/17 07:21:30;;;;;;;;;35.50;30.00;;;;;;;;4992515;28;45671;-74
2021/09/17 07:23:55;;;;;;;;;35.25;29.00;;;;;;;;4990111;28;45426;-73
2021/09/17 07:26:21;;;;;;;;;34.75;32.25;;;;;;;;4990611;28;45376;-73
2021/09/17 07:28:46;;;;;;;;;40.75;34.75;;;;;;;;4989257;28;46628;-73
2021/09/17 07:31:12;;;;;;;;;33.75;30.25;;;;;;;;4973429;28;45315;-74
2021/09/17 07:33:37;;;;;;;;;30.00;29.50;;;;;;;;4992197;28;45312;-74
2021/09/17 07:36:02;;;;;;;;;34.25;32.50;;;;;;;;4990574;28;45295;-74
2021/09/17 07:38:28;;;;;;;;;29.75;28.75;;;;;;;;4990293;28;46058;-74
2021/09/17 07:40:53;;;;;;;;;33.00;30.00;;;;;;;;4988700;28;45284;-73
2021/09/17 07:43:18;;;;;;;;;37.00;32.25;;;;;;;;4989324;28;45197;-73
2021/09/17 07:45:43;;;;;;;;;32.50;31.00;;;;;;;;4991067;28;45432;-74
2021/09/17 07:48:09;;;;;;;;;45.00;34.25;;;;;;;;5001633;28;48118;-73
2021/09/17 07:50:35;;;;;;;;;32.00;29.00;;;;;;;;4989683;28;45400;-74
2021/09/17 07:53:00;;;;;;;;;39.25;34.25;;;;;;;;4990009;28;45530;-74
2021/09/17 07:55:25;;;;;;;;;30.25;29.25;;;;;;;;4989129;28;45330;-73
2021/09/17 07:57:52;;;;;;;;;30.00;27.50;;;;;;;;4990387;28;46534;-73
2021/09/17 08:00:17;;;;;;;;;25.00;20.50;;;;;;;;4992394;28;45404;-75
2021/09/17 08:02:43;;;;;;;;;19.25;19.25;;;;;;;;4990110;28;45432;-74
2021/09/17 08:05:09;;;;;;;;;20.00;19.50;;;;;;;;4989768;28;45436;-73
2021/09/17 08:07:35;;;;;;;;;16.75;14.75;;;;;;;;4989701;28;46337;-74
2021/09/17 08:10:00;;;;;;;;;18.50;16.75;;;;;;;;4989272;28;45423;-74
2021/09/17 08:12:25;;;;;;;;;16.75;15.50;;;;;;;;4991592;28;45332;-74
2021/09/17 08:14:50;;;;;;;;;14.50;12.00;;;;;;;;4988111;28;45473;-74
2021/09/17 08:17:16;;;;;;;;;18.00;16.00;;;;;;;;4989881;28;46070;-73
2021/09/17 08:19:41;;;;;;;;;12.50;11.50;;;;;;;;4988138;28;45427;-73
2021/09/17 08:22:06;;;;;;;;;14.00;11.00;;;;;;;;4988190;28;45374;-74
2021/09/17 08:24:32;;;;;;;;;11.75;11.75;;;;;;;;4991950;28;45348;-73
2021/09/17 08:27:00;;;;;;;;;16.25;14.75;;;;;;;;4989663;28;45924;-73
2021/09/17 08:29:25;;;;;;;;;15.75;13.75;;;;;;;;4987476;28;45380;-73
2021/09/17 08:31:51;;;;;;;;;16.25;13.00;;;;;;;;4989944;28;45303;-74
2021/09/17 08:34:16;;;;;;;;;13.00;13.00;;;;;;;;4989965;28;45491;-75
2021/09/17 08:36:41;;;;;;;;;12.75;10.75;;;;;;;;4990719;28;46941;-74
2021/09/17 08:39:07;;;;;;;;;11.50;11.50;;;;;;;;4990863;28;45373;-74
2021/09/17 08:41:32;;;;;;;;;12.00;12.00;;;;;;;;4989974;28;45363;-74
2021/09/17 08:43:58;;;;;;;;;13.25;13.25;;;;;;;;4989881;28;45305;-73
2021/09/17 08:46:23;;;;;;;;;18.00;15.25;;;;;;;;4972207;28;46286;-72
2021/09/17 08:48:49;;;;;;;;;17.25;16.75;;;;;;;;4989378;28;45436;-75
2021/09/17 08:51:15;;;;;;;;;13.75;13.75;;;;;;;;4991797;28;45505;-73
2021/09/17 08:53:40;;;;;;;;;12.00;11.00;;;;;;;;4989143;28;45456;-72
2021/09/17 08:56:07;;;;;;;;;15.00;13.00;;;;;;;;4989669;28;45382;-75
2021/09/17 08:58:33;;;;;;;;;11.25;10.25;;;;;;;;4989597;28;45380;-74
2021/09/17 09:00:58;;;;;;;;;11.00;9.00;;;;;;;;4988680;28;45246;-74
2021/09/17 09:03:28;;;;;;;;;14.75;12.50;;;;;;;;4990562;28;45329;-73
2021/09/17 09:05:53;;;;;;;;;11.50;11.50;;;;;;;;4987463;28;45983;-74
2021/09/17 09:08:24;;;;;;;;;9.75;9.75;;;;;;;;4988806;28;45410;-74
2021/09/17 09:10:50;;;;;;;;;12.75;11.50;;;;;;;;4989167;28;45372;-73
2021/09/17 09:13:15;;;;;;;;;13.75;13.75;;;;;;;;4989109;28;45614;-74
2021/09/17 09:15:40;;;;;;;;;9.50;9.50;;;;;;;;4990238;28;45479;-73
2021/09/17 09:18:08;;;;;;;;;9.25;7.50;;;;;;;;4989938;28;45290;-75
2021/09/17 09:20:39;;;;;;;;;13.00;11.75;;;;;;;;4989132;28;45483;-74
2021/09/17 09:23:04;;;;;;;;;11.50;7.00;;;;;;;;4988835;28;45954;-74
2021/09/17 09:25:29;;;;;;;;;10.00;10.00;;;;;;;;4988847;28;45338;-74
2021/09/17 09:28:08;;;;;;;;;14.25;13.25;;;;;;;;4989455;28;45494;-74
2021/09/17 09:30:34;;;;;;;;;12.50;12.50;;;;;;;;4987520;28;45336;-75
2021/09/17 09:33:19;;;;;;;;;12.25;11.25;;;;;;;;4988348;28;45630;-74
2021/09/17 09:35:44;;;;;;;;;9.75;8.25;;;;;;;;4988602;28;48713;-73
2021/09/17 09:38:09;;;;;;;;;8.00;8.00;;;;;;;;4986904;28;45389;-75
2021/09/17 09:40:35;;;;;;;;;10.00;8.75;;;;;;;;4969881;28;45473;-73
2021/09/17 09:43:01;;;;;;;;;12.75;11.75;;;;;;;;4988976;28;45288;-74
2021/09/17 09:45:26;;;;;;;;;14.50;12.00;;;;;;;;4989888;28;47415;-74
2021/09/17 09:47:55;;;;;;;;;10.50;10.50;;;;;;;;4988305;28;45485;-74
2021/09/17 09:50:23;;;;;;;;;13.00;12.50;;;;;;;;4988502;28;45367;-73
2021/09/17 09:53:00;;;;;;;;;15.25;13.50;;;;;;;;4988086;28;45375;-73
2021/09/17 09:55:26;;;;;;;;;19.00;16.50;;;;;;;;4969404;28;47154;-74
2021/09/17 09:57:53;;;;;;;;;10.00;10.00;;;;;;;;4987495;28;45538;-74
2021/09/17 10:00:19;;;;;;;;;8.75;8.00;;;;;;;;4991873;28;45320;-75
2021/09/17 10:02:45;;;;;;;;;10.75;10.75;;;;;;;;4988846;28;45331;-74
2021/09/17 10:05:11;;;;;;;;;9.50;9.50;;;;;;;;4987148;28;46083;-74
2021/09/17 10:07:37;;;;;;;;;12.00;12.00;;;;;;;;4970068;28;45462;-74
2021/09/17 10:10:07;;;;;;;;;14.75;12.25;;;;;;;;4988539;28;45473;-73
2021/09/17 10:12:32;;;;;;;;;9.00;7.00;;;;;;;;4986167;28;45526;-74
2021/09/17 10:14:59;;;;;;;;;10.25;8.75;;;;;;;;4986016;28;45475;-73
2021/09/17 10:17:26;;;;;;;;;7.75;7.75;;;;;;;;4986536;28;45754;-74
2021/09/17 10:19:52;;;;;;;;;7.25;7.00;;;;;;;;4986098;28;47804;-74
2021/09/17 10:22:26;;;;;;;;;8.00;7.75;;;;;;;;4987810;28;45511;-75
2021/09/17 10:25:02;;;;;;;;;12.00;10.75;;;;;;;;4987758;28;45419;-75
2021/09/17 10:27:28;;;;;;;;;8.00;8.00;;;;;;;;4989825;28;45473;-74
2021/09/17 10:29:53;;;;;;;;;8.25;7.50;;;;;;;;4987121;28;45509;-74
2021/09/17 10:32:27;;;;;;;;;9.00;9.00;;;;;;;;4987865;28;45260;-73
2021/09/17 10:35:09;;;;;;;;;9.50;8.50;;;;;;;;4985533;28;46298;-74
2021/09/17 10:37:48;;;;;;;;;7.00;7.00;;;;;;;;4989357;28;45422;-74
2021/09/17 10:40:14;;;;;;;;;11.50;7.00;;;;;;;;4977215;28;45419;-74
2021/09/17 10:42:59;;;;;;;;;5.67;5.67;;;;;;;;4992325;28;45357;-75
2021/09/17 10:45:24;;;;;;;;;6.00;6.00;;;;;;;;4992658;28;47052;-73
2021/09/17 10:47:54;;;;;;;;;6.00;6.00;;;;;;;;4990596;27;45467;-74
2021/09/17 10:50:21;;;;;;;;;5.67;5.67;;;;;;;;4990365;28;45537;-74
2021/09/17 10:52:50;;;;;;;;;7.50;7.50;;;;;;;;4990516;28;45336;-74
2021/09/17 10:55:43;;;;;;;;;6.00;6.00;;;;;;;;4990383;28;47565;-72
2021/09/17 10:58:27;;;;;;;;;6.00;5.00;;;;;;;;4878619;29;45520;-72
2021/09/17 11:00:56;;;;;;;;;7.67;7.67;;;;;;;;4893027;29;45612;-73
2021/09/17 11:03:39;;;;;;;;;6.00;6.00;;;;;;;;4893630;29;45380;-73
2021/09/17 11:08:52;;;;;;;;;6.33;6.00;;;;;;;;4892897;28;45504;-73
2021/09/17 11:11:23;;;;;;;;;6.00;5.67;;;;;;;;4893099;29;45366;-73
2021/09/17 11:13:49;;;;;;;;;6.00;5.00;;;;;;;;4893041;29;45755;-72
2021/09/17 11:16:18;;;;;;;;;5.00;5.00;;;;;;;;4893169;29;45491;-72
2021/09/17 11:19:09;;;;;;;;;10.00;10.00;;;;;;;;4892877;29;45325;-73
2021/09/17 11:21:36;;;;;;;;;11.33;7.00;;;;;;;;4889237;29;45580;-73
2021/09/17 11:24:01;;;;;;;;;5.33;4.33;;;;;;;;4893016;29;45362;-73
2021/09/17 11:26:29;;;;;;;;;7.00;7.00;;;;;;;;4892692;29;47197;-72
2021/09/17 11:29:05;;;;;;;;;8.00;7.67;;;;;;;;4892296;29;45369;-72
2021/09/17 11:31:34;;;;;;;;;7.00;6.00;;;;;;;;4893090;29;45598;-73
2021/09/17 11:34:04;;;;;;;;;6.00;6.00;;;;;;;;4902703;28;45446;-72
2021/09/17 11:36:42;;;;;;;;;8.00;7.67;;;;;;;;4975432;28;45893;-73
2021/09/17 11:39:11;;;;;;;;;4.67;4.67;;;;;;;;4992380;28;45560;-74
2021/09/17 11:41:37;;;;;;;;;5.67;3.33;;;;;;;;4991329;28;45267;-73
2021/09/17 11:44:02;;;;;;;;;11.67;10.67;;;;;;;;4990710;28;45332;-71
2021/09/17 11:46:28;;;;;;;;;9.33;8.00;;;;;;;;4987834;28;45462;-73
2021/09/17 11:48:53;;;;;;;;;8.33;7.00;;;;;;;;4990144;28;45511;-72
2021/09/17 11:51:21;;;;;;;;;11.00;8.00;;;;;;;;4992236;28;46004;-73
2021/09/17 11:53:46;;;;;;;;;5.67;5.67;;;;;;;;4989492;28;45518;-73
2021/09/17 11:56:11;;;;;;;;;7.67;6.33;;;;;;;;4989768;28;46134;-73
2021/09/17 11:58:43;;;;;;;;;8.00;8.00;;;;;;;;4990343;28;45501;-71
2021/09/17 12:01:15;;;;;;;;;6.33;6.33;;;;;;;;4975236;28;45441;-71
2021/09/17 12:03:41;;;;;;;;;5.67;5.67;;;;;;;;4991382;28;45390;-72
2021/09/17 12:06:06;;;;;;;;;5.00;5.00;;;;;;;;4990552;28;45363;-71
2021/09/17 12:08:31;;;;;;;;;5.50;5.50;;;;;;;;4989466;28;45542;-73
2021/09/17 12:11:03;;;;;;;;;8.00;7.50;;;;;;;;4989183;28;45387;-72
2021/09/17 12:13:28;;;;;;;;;7.25;6.75;;;;;;;;4988703;28;45366;-72
2021/09/17 12:15:58;;;;;;;;;7.50;5.50;;;;;;;;4990156;28;46147;-73
2021/09/17 12:18:29;;;;;;;;;9.00;7.00;;;;;;;;4990573;28;45425;-74
2021/09/17 12:21:02;;;;;;;;;7.00;5.67;;;;;;;;4983236;28;45545;-72
2021/09/17 12:23:49;;;;;;;;;4.50;4.50;;;;;;;;4990517;28;45524;-73
2021/09/17 12:26:18;;;;;;;;;5.33;5.33;;;;;;;;4988714;28;45471;-72
2021/09/17 12:28:51;;;;;;;;;4.67;4.67;;;;;;;;4989662;28;45425;-72
2021/09/17 12:31:32;;;;;;;;;5.50;5.50;;;;;;;;4989521;28;45361;-72
2021/09/17 12:34:05;;;;;;;;;5.25;3.75;;;;;;;;4988895;28;45332;-72
2021/09/17 12:36:30;;;;;;;;;4.50;4.50;;;;;;;;4987513;28;45440;-71
2021/09/17 12:39:00;;;;;;;;;5.00;3.67;;;;;;;;4989137;28;45513;-72
2021/09/17 12:41:25;;;;;;;;;12.25;12.25;;;;;;;;4989434;28;45269;-73
2021/09/17 12:44:04;;;;;;;;;6.75;5.75;;;;;;;;4987988;28;45405;-72
2021/09/17 12:46:32;;;;;;;;;7.00;5.25;;;;;;;;4988653;28;45499;-71
2021/09/17 12:49:01;;;;;;;;;7.00;7.00;;;;;;;;4989020;28;45639;-72
2021/09/17 12:51:27;;;;;;;;;4.33;4.33;;;;;;;;4991203;28;45307;-72
2021/09/17 12:53:57;;;;;;;;;10.25;10.25;;;;;;;;4987249;28;45481;-71
2021/09/17 12:56:23;;;;;;;;;15.00;14.50;;;;;;;;4987023;28;45345;-72
2021/09/17 12:59:05;;;;;;;;;9.00;9.00;;;;;;;;4988145;28;45347;-71
2021/09/17 13:01:30;;;;;;;;;7.67;5.67;;;;;;;;4989063;28;45571;-72
2021/09/17 13:03:56;;;;;;;;;8.00;6.67;;;;;;;;4989325;28;45566;-71
2021/09/17 13:06:21;;;;;;;;;5.00;5.00;;;;;;;;4973165;28;45566;-72
2021/09/17 13:08:46;;;;;;;;;7.33;6.33;;;;;;;;4989107;28;45548;-73
2021/09/17 13:11:11;;;;;;;;;6.33;5.67;;;;;;;;4989177;28;45343;-72
2021/09/17 13:13:37;;;;;;;;;6.00;6.00;;;;;;;;4987656;28;45315;-70
2021/09/17 13:16:02;;;;;;;;;5.00;5.00;;;;;;;;4988486;28;46246;-72
2021/09/17 13:18:27;;;;;;;;;8.00;7.00;;;;;;;;4973172;28;45434;-71
2021/09/17 13:20:53;;;;;;;;;5.67;5.67;;;;;;;;4988919;28;45375;-71
2021/09/17 13:23:18;;;;;;;;;9.00;7.67;;;;;;;;4989080;28;45509;-72
2021/09/17 13:25:43;;;;;;;;;6.33;5.00;;;;;;;;4988776;28;47303;-72
2021/09/17 13:28:10;;;;;;;;;9.00;9.00;;;;;;;;4988639;28;45282;-72
2021/09/17 13:30:37;;;;;;;;;5.00;4.00;;;;;;;;4989787;28;45456;-73
2021/09/17 13:33:03;;;;;;;;;6.00;5.00;;;;;;;;4987850;28;45338;-72
2021/09/17 13:35:29;;;;;;;;;7.33;6.33;;;;;;;;4988306;28;46017;-72
2021/09/17 13:37:55;;;;;;;;;5.00;5.00;;;;;;;;4988655;28;45473;-72
2021/09/17 13:40:22;;;;;;;;;6.00;5.00;;;;;;;;4989750;28;45605;-73
2021/09/17 13:42:49;;;;;;;;;4.00;4.00;;;;;;;;4989007;28;45383;-72
2021/09/17 13:45:15;;;;;;;;;6.67;6.00;;;;;;;;4988634;28;46320;-72
2021/09/17 13:47:41;;;;;;;;;5.67;5.67;;;;;;;;4987476;28;45428;-70
2021/09/17 13:50:07;;;;;;;;;7.67;7.67;;;;;;;;4971535;28;45599;-71
2021/09/17 13:52:33;;;;;;;;;7.00;7.00;;;;;;;;4989945;27;45468;-72
2021/09/17 13:54:58;;;;;;;;;7.00;7.00;;;;;;;;4989784;28;45493;-72
2021/09/17 13:57:23;;;;;;;;;7.00;7.00;;;;;;;;4992568;28;45259;-72
2021/09/17 13:59:50;;;;;;;;;3.67;3.67;;;;;;;;4991065;28;45476;-72
2021/09/17 14:02:16;;;;;;;;;5.33;5.33;;;;;;;;4996373;28;45632;-72
2021/09/17 14:04:41;;;;;;;;;4.33;4.33;;;;;;;;4993233;28;45827;-74
2021/09/17 14:07:06;;;;;;;;;6.00;6.00;;;;;;;;4988574;28;45495;-72
2021/09/17 14:09:32;;;;;;;;;7.67;6.33;;;;;;;;4990455;28;45526;-71
2021/09/17 14:11:57;;;;;;;;;9.25;9.00;;;;;;;;4990013;28;45535;-73
2021/09/17 14:14:23;;;;;;;;;7.00;7.00;;;;;;;;4989510;28;46652;-72
2021/09/17 14:16:48;;;;;;;;;5.25;5.25;;;;;;;;4990805;28;45551;-71
2021/09/17 14:19:15;;;;;;;;;7.75;7.75;;;;;;;;4989162;28;45291;-72
2021/09/17 14:21:41;;;;;;;;;14.00;11.25;;;;;;;;4992493;28;45509;-72
2021/09/17 14:24:06;;;;;;;;;6.50;6.25;;;;;;;;4991918;28;45276;-72